createdAt,value
2022-09-17T00:00:32.699Z,12.97
2022-09-17T00:03:25.078Z,12.81
2022-09-17T00:06:03.178Z,14.24
2022-09-17T00:08:35.269Z,15.37
2022-09-17T00:11:11.365Z,15.64
2022-09-17T00:13:43.702Z,14.48
2022-09-17T00:16:21.999Z,13.39
2022-09-17T00:18:53.539Z,12.57
2022-09-17T00:21:25.719Z,12.44
2022-09-17T00:23:58.665Z,14.02
2022-09-17T00:26:31.897Z,15.26
2022-09-17T00:29:03.841Z,15.49
2022-09-17T00:31:36.101Z,14.26
2022-09-17T00:34:08.031Z,13.06
2022-09-17T00:36:40.710Z,12.18
2022-09-17T00:39:15.661Z,11.92
2022-09-17T00:41:47.169Z,13.27
2022-09-17T00:44:43.118Z,14.51
2022-09-17T00:47:25.424Z,14.78
2022-09-17T00:50:01.112Z,13.50
2022-09-17T00:52:37.311Z,12.45
2022-09-17T00:55:15.070Z,12.18
2022-09-17T00:57:47.577Z,13.65
2022-09-17T01:00:22.721Z,14.84
2022-09-17T01:02:55.035Z,15.06
2022-09-17T01:05:40.132Z,13.90
2022-09-17T01:08:22.357Z,12.74
2022-09-17T01:11:16.142Z,11.92
2022-09-17T01:13:58.837Z,11.98
2022-09-17T01:16:38.932Z,13.65
2022-09-17T01:19:32.108Z,14.74
2022-09-17T01:22:09.622Z,14.76
2022-09-17T01:25:01.425Z,13.42
2022-09-17T01:27:51.066Z,12.15
2022-09-17T01:30:48.899Z,11.48
2022-09-17T01:33:27.669Z,13.05
2022-09-17T01:36:09.500Z,14.18
2022-09-17T01:38:50.058Z,14.83
2022-09-17T01:41:28.694Z,14.87
2022-09-17T01:44:03.719Z,13.65
2022-09-17T01:46:38.300Z,12.52
2022-09-17T01:49:11.727Z,12.19
2022-09-17T01:51:47.204Z,13.60
2022-09-17T01:54:24.523Z,14.78
2022-09-17T01:57:01.989Z,15.01
2022-09-17T01:59:39.111Z,13.76
2022-09-17T02:02:17.775Z,12.56
2022-09-17T02:04:56.419Z,12.17
2022-09-17T02:07:28.591Z,13.65
2022-09-17T02:10:06.848Z,14.87
2022-09-17T02:12:42.075Z,15.19
2022-09-17T02:15:19.715Z,13.92
2022-09-17T02:17:55.317Z,12.70
2022-09-17T02:20:32.925Z,12.27
2022-09-17T02:23:14.517Z,13.62
2022-09-17T02:25:51.535Z,14.94
2022-09-17T02:28:29.514Z,15.12
2022-09-17T02:31:01.025Z,13.82
2022-09-17T02:33:31.496Z,12.64
2022-09-17T02:36:03.776Z,11.78
2022-09-17T02:38:35.298Z,11.65
2022-09-17T02:41:10.514Z,13.25
2022-09-17T02:43:51.578Z,14.54
2022-09-17T02:46:48.327Z,14.95
2022-09-17T02:49:34.308Z,13.49
2022-09-17T02:52:19.256Z,12.27
2022-09-17T02:55:01.696Z,12.03
2022-09-17T02:57:42.071Z,13.70
2022-09-17T03:00:16.934Z,14.89
2022-09-17T03:02:52.273Z,15.19
2022-09-17T03:05:25.730Z,13.95
2022-09-17T03:08:00.237Z,12.76
2022-09-17T03:10:33.758Z,12.35
2022-09-17T03:13:05.282Z,13.72
2022-09-17T03:15:36.772Z,14.95
2022-09-17T03:18:06.995Z,15.21
2022-09-17T03:20:38.485Z,13.98
2022-09-17T03:23:08.540Z,12.80
2022-09-17T03:25:40.000Z,11.91
2022-09-17T03:28:11.426Z,11.74
2022-09-17T03:30:43.434Z,13.34
2022-09-17T03:33:14.969Z,14.67
2022-09-17T03:35:45.216Z,15.15
2022-09-17T03:38:17.046Z,13.94
2022-09-17T03:40:59.457Z,12.69
2022-09-17T03:43:30.903Z,12.20
2022-09-17T03:46:02.431Z,13.54
2022-09-17T03:48:37.006Z,14.72
2022-09-17T03:51:09.049Z,14.97
2022-09-17T03:53:40.629Z,13.68
2022-09-17T03:56:12.136Z,12.43
2022-09-17T03:58:43.584Z,11.84
2022-09-17T04:01:15.084Z,13.04
2022-09-17T04:03:45.931Z,14.11
2022-09-17T04:06:17.365Z,14.81
2022-09-17T04:08:48.985Z,14.42
2022-09-17T04:11:18.943Z,13.09
2022-09-17T04:13:50.402Z,12.00
2022-09-17T04:16:21.935Z,11.18
2022-09-17T04:18:51.998Z,10.99
2022-09-17T04:21:23.428Z,12.37
2022-09-17T04:23:54.885Z,13.74
2022-09-17T04:26:26.358Z,14.11
2022-09-17T04:28:57.834Z,12.93
2022-09-17T04:31:29.363Z,11.78
2022-09-17T04:33:59.466Z,11.42
2022-09-17T04:36:32.004Z,12.86
2022-09-17T04:39:03.453Z,14.22
2022-09-17T04:41:34.970Z,14.26
2022-09-17T04:44:07.058Z,13.01
2022-09-17T04:46:38.800Z,12.15
2022-09-17T04:49:11.301Z,11.82
2022-09-17T04:51:42.750Z,12.14
2022-09-17T04:54:14.653Z,14.07
2022-09-17T04:56:46.103Z,15.04
2022-09-17T04:59:17.556Z,14.03
2022-09-17T05:01:49.487Z,12.81
2022-09-17T05:04:21.028Z,11.86
2022-09-17T05:06:52.696Z,11.62
2022-09-17T05:09:22.693Z,13.28
2022-09-17T05:11:54.145Z,14.92
2022-09-17T05:14:25.569Z,16.05
2022-09-17T05:16:57.044Z,16.16
2022-09-17T05:19:28.571Z,16.50
2022-09-17T05:21:58.543Z,17.12
2022-09-17T05:24:30.175Z,17.35
2022-09-17T05:27:00.235Z,17.22
2022-09-17T05:29:31.717Z,17.20
2022-09-17T05:32:01.696Z,16.87
2022-09-17T05:34:33.167Z,16.25
2022-09-17T05:37:03.149Z,15.68
2022-09-17T05:39:34.593Z,15.28
2022-09-17T05:42:04.687Z,14.93
2022-09-17T05:44:36.154Z,14.89
2022-09-17T05:47:06.427Z,14.72
2022-09-17T05:49:37.933Z,14.68
2022-09-17T05:52:07.930Z,15.26
2022-09-17T05:54:39.359Z,17.36
2022-09-17T05:57:09.330Z,18.93
2022-09-17T05:59:40.771Z,18.50
2022-09-17T06:02:13.321Z,17.92
2022-09-17T06:04:45.736Z,17.74
2022-09-17T06:07:15.701Z,17.48
2022-09-17T06:09:47.146Z,17.28
2022-09-17T06:12:17.110Z,17.21
2022-09-17T06:14:48.607Z,16.96
2022-09-17T06:17:22.188Z,16.71
2022-09-17T06:19:54.149Z,16.52
2022-09-17T06:22:25.918Z,16.45
2022-09-17T06:24:57.477Z,16.76
2022-09-17T06:27:33.764Z,16.89
2022-09-17T06:30:06.305Z,16.77
2022-09-17T06:32:38.026Z,16.62
2022-09-17T06:35:11.513Z,16.58
2022-09-17T06:37:43.100Z,16.27
2022-09-17T06:40:15.585Z,16.07
2022-09-17T06:42:47.323Z,16.97
2022-09-17T06:45:18.990Z,18.35
2022-09-17T06:47:50.961Z,17.83
2022-09-17T06:50:23.540Z,16.88
2022-09-17T06:52:56.089Z,16.13
2022-09-17T06:55:28.276Z,15.58
2022-09-17T06:58:02.473Z,15.59
2022-09-17T07:00:34.009Z,17.26
2022-09-17T07:03:05.550Z,18.28
2022-09-17T07:05:37.224Z,17.58
2022-09-17T07:08:10.872Z,16.67
2022-09-17T07:10:43.372Z,15.92
2022-09-17T07:13:15.020Z,15.45
2022-09-17T07:15:53.611Z,15.17
2022-09-17T07:18:25.775Z,15.92
2022-09-17T07:20:59.862Z,17.14
2022-09-17T07:23:33.653Z,16.76
2022-09-17T07:26:07.755Z,16.17
2022-09-17T07:28:40.998Z,15.80
2022-09-17T07:31:16.404Z,15.52
2022-09-17T07:33:48.491Z,15.25
2022-09-17T07:36:20.086Z,15.10
2022-09-17T07:38:51.626Z,15.03
2022-09-17T07:41:23.087Z,14.95
2022-09-17T07:43:54.105Z,14.94
2022-09-17T07:46:26.033Z,15.22
2022-09-17T07:48:57.756Z,16.84
2022-09-17T07:51:30.412Z,18.14
2022-09-17T07:54:02.311Z,17.64
2022-09-17T07:56:34.675Z,16.92
2022-09-17T07:59:06.574Z,16.38
2022-09-17T08:01:38.429Z,16.00
2022-09-17T08:04:10.013Z,15.73
2022-09-17T08:06:41.143Z,15.53
2022-09-17T08:09:13.473Z,15.31
2022-09-17T08:11:55.521Z,15.18
2022-09-17T08:14:29.981Z,15.09
2022-09-17T08:17:01.857Z,15.11
2022-09-17T08:19:34.581Z,15.16
2022-09-17T08:22:06.257Z,15.25
2022-09-17T08:24:38.343Z,15.34
2022-09-17T08:27:09.872Z,15.42
2022-09-17T08:29:41.558Z,16.60
2022-09-17T08:32:13.264Z,18.20
2022-09-17T08:34:47.097Z,17.88
2022-09-17T08:37:18.964Z,17.31
2022-09-17T08:39:50.704Z,16.86
2022-09-17T08:42:29.101Z,16.42
2022-09-17T08:45:37.558Z,15.98
2022-09-17T08:48:14.490Z,15.50
2022-09-17T08:50:46.094Z,15.18
2022-09-17T08:53:36.570Z,15.00
2022-09-17T08:56:14.659Z,14.86
2022-09-17T08:59:08.450Z,14.75
2022-09-17T09:01:46.491Z,15.39
2022-09-17T09:04:42.789Z,17.50
2022-09-17T09:07:19.490Z,18.45
2022-09-17T09:09:56.080Z,17.59
2022-09-17T09:12:32.847Z,16.85
2022-09-17T09:15:06.854Z,16.37
2022-09-17T09:17:45.229Z,16.07
2022-09-17T09:20:19.421Z,15.80
2022-09-17T09:22:52.571Z,15.54
2022-09-17T09:25:28.552Z,15.32
2022-09-17T09:28:07.816Z,15.17
2022-09-17T09:30:53.595Z,15.06
2022-09-17T09:33:31.964Z,14.95
2022-09-17T09:36:06.628Z,15.14
2022-09-17T09:38:41.850Z,16.97
2022-09-17T09:41:16.053Z,18.18
2022-09-17T09:44:05.611Z,17.58
2022-09-17T09:47:04.344Z,16.73
2022-09-17T09:49:54.334Z,16.18
2022-09-17T09:52:42.432Z,15.91
2022-09-17T09:55:41.536Z,15.80
2022-09-17T09:58:25.356Z,15.76
2022-09-17T10:00:56.817Z,15.75
2022-09-17T10:03:28.305Z,15.69
2022-09-17T10:06:02.434Z,15.56
2022-09-17T10:08:39.454Z,15.38
2022-09-17T10:11:25.649Z,15.62
2022-09-17T10:14:20.956Z,17.34
2022-09-17T10:17:11.775Z,17.44
2022-09-17T10:19:43.709Z,16.64
2022-09-17T10:22:28.418Z,16.13
2022-09-17T10:25:01.623Z,15.76
2022-09-17T10:27:33.879Z,15.42
2022-09-17T10:30:17.771Z,15.11
2022-09-17T10:33:16.191Z,14.91
2022-09-17T10:35:59.900Z,15.45
2022-09-17T10:38:35.304Z,17.62
2022-09-17T10:41:15.351Z,18.36
2022-09-17T10:43:47.322Z,17.61
2022-09-17T10:46:27.627Z,16.90
2022-09-17T10:49:12.931Z,16.35
2022-09-17T10:51:45.175Z,15.93
2022-09-17T10:54:32.938Z,15.68
2022-09-17T10:57:06.405Z,15.45
2022-09-17T11:00:10.163Z,15.23
2022-09-17T11:03:17.048Z,15.73
2022-09-17T11:06:12.268Z,18.03
2022-09-17T11:08:58.308Z,18.68
2022-09-17T11:11:41.799Z,17.83
2022-09-17T11:14:23.970Z,17.14
2022-09-17T11:17:05.731Z,16.68
2022-09-17T11:19:46.863Z,16.35
2022-09-17T11:22:24.798Z,16.15
2022-09-17T11:25:09.001Z,16.07
2022-09-17T11:27:54.331Z,15.95
2022-09-17T11:30:32.005Z,15.85
2022-09-17T11:33:18.640Z,15.76
2022-09-17T11:35:54.701Z,15.69
2022-09-17T11:38:29.378Z,15.56
2022-09-17T11:41:07.537Z,15.52
2022-09-17T11:43:42.614Z,16.91
2022-09-17T11:46:19.851Z,18.55
2022-09-17T11:48:59.179Z,19.19
2022-09-17T11:51:36.393Z,18.21
2022-09-17T11:54:27.198Z,17.29
2022-09-17T11:57:09.625Z,16.59
2022-09-17T11:59:47.520Z,16.10
2022-09-17T12:02:27.466Z,16.21
2022-09-17T12:05:02.658Z,18.04
2022-09-17T12:07:42.048Z,19.12
2022-09-17T12:10:31.007Z,18.33
2022-09-17T12:13:15.069Z,17.45
2022-09-17T12:15:53.368Z,16.82
2022-09-17T12:18:37.701Z,16.31
2022-09-17T12:21:14.838Z,16.42
2022-09-17T12:23:50.498Z,18.16
2022-09-17T12:26:34.346Z,19.10
2022-09-17T12:29:22.097Z,18.22
2022-09-17T12:32:02.107Z,17.33
2022-09-17T12:34:46.843Z,16.76
2022-09-17T12:37:25.664Z,16.35
2022-09-17T12:40:16.868Z,16.04
2022-09-17T12:43:12.140Z,16.48
2022-09-17T12:45:57.887Z,18.57
2022-09-17T12:49:08.308Z,19.46
2022-09-17T12:51:58.281Z,18.38
2022-09-17T12:54:45.457Z,17.56
2022-09-17T12:57:30.471Z,16.94
2022-09-17T13:00:08.203Z,16.49
2022-09-17T13:02:45.576Z,16.14
2022-09-17T13:05:47.584Z,16.22
2022-09-17T13:08:54.633Z,18.26
2022-09-17T13:11:42.473Z,19.10
2022-09-17T13:14:24.877Z,18.09
2022-09-17T13:17:04.011Z,17.29
2022-09-17T13:19:45.137Z,16.73
2022-09-17T13:22:21.117Z,16.28
2022-09-17T13:25:05.654Z,15.95
2022-09-17T13:27:38.657Z,15.87
2022-09-17T13:30:13.230Z,17.33
2022-09-17T13:32:52.812Z,18.60
2022-09-17T13:35:54.461Z,18.05
2022-09-17T13:38:26.177Z,17.23
2022-09-17T13:41:24.163Z,16.72
2022-09-17T13:43:56.257Z,16.29
2022-09-17T13:46:29.434Z,15.97
2022-09-17T13:49:03.565Z,16.27
2022-09-17T13:51:52.938Z,18.19
2022-09-17T13:54:39.693Z,19.35
2022-09-17T13:57:16.601Z,18.50
2022-09-17T13:59:59.966Z,17.64
2022-09-17T14:02:38.485Z,17.02
2022-09-17T14:05:38.802Z,16.61
2022-09-17T14:08:57.666Z,16.26
2022-09-17T14:11:41.789Z,15.95
2022-09-17T14:14:47.553Z,16.31
2022-09-17T14:17:51.977Z,18.60
2022-09-17T14:20:26.331Z,19.46
2022-09-17T14:23:02.613Z,18.53
2022-09-17T14:25:47.321Z,17.71
2022-09-17T14:28:29.806Z,17.15
2022-09-17T14:31:03.509Z,16.79
2022-09-17T14:33:36.525Z,16.51
2022-09-17T14:36:19.090Z,16.26
2022-09-17T14:38:54.158Z,16.02
2022-09-17T14:41:30.857Z,16.23
2022-09-17T14:44:07.420Z,18.08
2022-09-17T14:46:45.198Z,19.22
2022-09-17T14:49:23.716Z,18.43
2022-09-17T14:51:59.703Z,17.60
2022-09-17T14:54:36.103Z,17.02
2022-09-17T14:57:22.000Z,16.59
2022-09-17T14:59:57.061Z,16.84
2022-09-17T15:02:36.880Z,18.54
2022-09-17T15:05:26.638Z,19.47
2022-09-17T15:08:21.144Z,18.56
2022-09-17T15:10:56.163Z,17.68
2022-09-17T15:13:30.241Z,17.15
2022-09-17T15:16:07.629Z,17.26
2022-09-17T15:18:44.774Z,18.96
2022-09-17T15:21:31.836Z,19.89
2022-09-17T15:24:14.653Z,19.00
2022-09-17T15:26:49.957Z,18.02
2022-09-17T15:29:24.370Z,17.41
2022-09-17T15:31:55.887Z,16.93
2022-09-17T15:34:27.740Z,17.02
2022-09-17T15:37:17.427Z,18.71
2022-09-17T15:39:52.993Z,19.70
2022-09-17T15:42:27.436Z,18.80
2022-09-17T15:45:18.868Z,17.86
2022-09-17T15:47:58.232Z,17.16
2022-09-17T15:50:31.838Z,17.21
2022-09-17T15:53:23.237Z,18.81
2022-09-17T15:56:11.095Z,19.72
2022-09-17T15:58:56.610Z,18.70
2022-09-17T16:01:55.541Z,17.76
2022-09-17T16:04:29.729Z,17.09
2022-09-17T16:07:27.467Z,17.09
2022-09-17T16:09:59.426Z,18.96
2022-09-17T16:12:31.046Z,19.76
2022-09-17T16:15:06.412Z,18.83
2022-09-17T16:17:47.334Z,17.77
2022-09-17T16:20:23.540Z,16.97
2022-09-17T16:22:57.277Z,16.84
2022-09-17T16:25:30.122Z,18.35
2022-09-17T16:28:05.137Z,19.22
2022-09-17T16:30:36.788Z,18.29
2022-09-17T16:33:10.125Z,17.28
2022-09-17T16:35:41.862Z,16.56
2022-09-17T16:38:13.883Z,16.40
2022-09-17T16:40:47.534Z,17.86
2022-09-17T16:43:19.226Z,18.92
2022-09-17T16:46:02.251Z,18.05
2022-09-17T16:48:34.427Z,16.96
2022-09-17T16:51:11.036Z,16.20
2022-09-17T16:53:42.601Z,16.04
2022-09-17T16:56:16.255Z,17.61
2022-09-17T16:58:50.407Z,18.58
2022-09-17T17:01:21.970Z,17.73
2022-09-17T17:03:55.609Z,16.77
2022-09-17T17:06:27.503Z,16.05
2022-09-17T17:09:01.055Z,15.97
2022-09-17T17:11:32.593Z,17.54
2022-09-17T17:14:05.294Z,18.49
2022-09-17T17:16:37.713Z,17.68
2022-09-17T17:19:09.371Z,16.66
2022-09-17T17:21:41.284Z,15.90
2022-09-17T17:24:15.880Z,15.34
2022-09-17T17:26:49.446Z,15.45
2022-09-17T17:29:20.941Z,17.14
2022-09-17T17:31:51.087Z,18.46
2022-09-17T17:34:22.877Z,19.09
2022-09-17T17:36:54.364Z,18.28
2022-09-17T17:39:24.346Z,17.11
2022-09-17T17:41:56.278Z,16.26
2022-09-17T17:44:27.778Z,15.63
2022-09-17T17:46:59.394Z,15.62
2022-09-17T17:49:30.948Z,17.25
2022-09-17T17:52:01.018Z,18.21
2022-09-17T17:54:33.236Z,17.37
2022-09-17T17:57:05.211Z,16.31
2022-09-17T17:59:36.704Z,15.52
2022-09-17T18:02:06.842Z,15.40
2022-09-17T18:04:38.579Z,16.93
2022-09-17T18:07:10.225Z,18.22
2022-09-17T18:09:41.894Z,18.48
2022-09-17T18:12:13.463Z,17.34
2022-09-17T18:14:43.422Z,16.25
2022-09-17T18:17:14.904Z,15.47
2022-09-17T18:19:44.983Z,15.29
2022-09-17T18:22:16.518Z,16.73
2022-09-17T18:24:46.927Z,17.99
2022-09-17T18:27:18.541Z,18.22
2022-09-17T18:30:22.015Z,16.81
2022-09-17T18:32:54.025Z,15.72
2022-09-17T18:35:25.645Z,15.38
2022-09-17T18:37:57.155Z,16.74
2022-09-17T18:40:27.359Z,17.82
2022-09-17T18:42:58.941Z,17.49
2022-09-17T18:45:28.928Z,16.23
2022-09-17T18:48:00.606Z,15.21
2022-09-17T18:50:30.656Z,14.94
2022-09-17T18:53:02.806Z,16.33
2022-09-17T18:55:34.984Z,17.59
2022-09-17T18:58:04.984Z,17.94
2022-09-17T19:00:36.500Z,16.85
2022-09-17T19:03:06.596Z,15.72
2022-09-17T19:05:38.034Z,14.92
2022-09-17T19:08:09.647Z,14.81
2022-09-17T19:10:41.282Z,16.34
2022-09-17T19:13:11.353Z,17.65
2022-09-17T19:15:43.212Z,18.31
2022-09-17T19:18:15.163Z,17.87
2022-09-17T19:20:46.673Z,16.60
2022-09-17T19:23:17.988Z,15.63
2022-09-17T19:25:49.469Z,14.94
2022-09-17T19:28:20.386Z,14.87
2022-09-17T19:30:51.928Z,16.35
2022-09-17T19:33:23.452Z,17.62
2022-09-17T19:35:53.501Z,17.96
2022-09-17T19:38:27.619Z,16.90
2022-09-17T19:41:00.904Z,15.82
2022-09-17T19:43:34.317Z,15.46
2022-09-17T19:46:08.324Z,16.71
2022-09-17T19:48:44.070Z,17.85
2022-09-17T19:51:16.284Z,18.08
2022-09-17T19:53:48.467Z,16.93
2022-09-17T19:56:22.202Z,15.82
2022-09-17T19:58:54.257Z,15.02
2022-09-17T20:01:26.349Z,14.91
2022-09-17T20:03:57.889Z,16.31
2022-09-17T20:06:30.757Z,17.46
2022-09-17T20:09:02.591Z,17.36
2022-09-17T20:11:34.176Z,16.13
2022-09-17T20:14:06.551Z,15.11
2022-09-17T20:16:39.844Z,14.39
2022-09-17T20:19:16.399Z,14.39
2022-09-17T20:21:48.016Z,16.11
2022-09-17T20:24:19.580Z,17.35
2022-09-17T20:26:51.111Z,18.00
2022-09-17T20:29:22.767Z,17.87
2022-09-17T20:31:52.803Z,16.61
2022-09-17T20:34:24.288Z,15.52
2022-09-17T20:37:12.208Z,14.73
2022-09-17T20:39:45.313Z,14.72
2022-09-17T20:42:16.785Z,16.26
2022-09-17T20:44:46.795Z,17.41
2022-09-17T20:47:18.764Z,18.02
2022-09-17T20:49:50.658Z,17.50
2022-09-17T20:52:21.308Z,16.19
2022-09-17T20:54:52.857Z,15.18
2022-09-17T20:57:22.849Z,14.88
2022-09-17T20:59:57.458Z,16.17
2022-09-17T21:02:29.153Z,17.41
2022-09-17T21:05:00.613Z,17.73
2022-09-17T21:07:33.143Z,16.58
2022-09-17T21:10:05.386Z,15.44
2022-09-17T21:12:36.857Z,15.02
2022-09-17T21:15:11.641Z,16.29
2022-09-17T21:17:45.348Z,17.44
2022-09-17T21:20:17.289Z,17.65
2022-09-17T21:22:48.740Z,16.48
2022-09-17T21:25:18.721Z,15.35
2022-09-17T21:27:50.193Z,14.50
2022-09-17T21:30:20.264Z,14.35
2022-09-17T21:32:55.498Z,15.64
2022-09-17T21:35:30.269Z,16.90
2022-09-17T21:38:01.691Z,17.64
2022-09-17T21:40:33.225Z,17.73
2022-09-17T21:43:03.288Z,16.54
2022-09-17T21:45:34.708Z,15.39
2022-09-17T21:48:06.331Z,14.99
2022-09-17T21:50:37.860Z,16.21
2022-09-17T21:53:07.872Z,17.23
2022-09-17T21:55:39.354Z,17.91
2022-09-17T21:58:09.813Z,17.90
2022-09-17T22:00:42.904Z,16.63
2022-09-17T22:03:14.429Z,15.43
2022-09-17T22:05:44.437Z,15.01
2022-09-17T22:08:15.880Z,16.14
2022-09-17T22:10:47.323Z,17.30
2022-09-17T22:13:17.327Z,17.63
2022-09-17T22:15:58.408Z,16.53
2022-09-17T22:18:30.302Z,15.27
2022-09-17T22:21:11.834Z,14.88
2022-09-17T22:23:43.854Z,16.36
2022-09-17T22:26:15.941Z,17.42
2022-09-17T22:28:47.593Z,17.67
2022-09-17T22:31:20.391Z,16.51
2022-09-17T22:33:54.551Z,15.22
2022-09-17T22:36:25.725Z,14.84
2022-09-17T22:38:59.184Z,16.11
2022-09-17T22:41:32.389Z,17.25
2022-09-17T22:44:05.649Z,17.50
2022-09-17T22:46:39.320Z,16.38
2022-09-17T22:49:12.164Z,15.21
2022-09-17T22:51:44.916Z,14.86
2022-09-17T22:54:18.862Z,16.24
2022-09-17T22:56:50.776Z,17.33
2022-09-17T22:59:22.310Z,17.64
2022-09-17T23:01:52.322Z,16.44
2022-09-17T23:04:23.756Z,15.20
2022-09-17T23:06:55.215Z,14.83
2022-09-17T23:09:25.224Z,16.26
2022-09-17T23:11:56.672Z,17.36
2022-09-17T23:14:28.201Z,17.59
2022-09-17T23:16:58.181Z,16.39
2022-09-17T23:19:29.951Z,15.16
2022-09-17T23:22:01.462Z,14.73
2022-09-17T23:24:34.280Z,16.03
2022-09-17T23:27:05.874Z,17.13
2022-09-17T23:29:37.583Z,17.50
2022-09-17T23:32:07.794Z,16.51
2022-09-17T23:34:42.384Z,15.34
2022-09-17T23:37:13.806Z,14.92
2022-09-17T23:39:45.243Z,16.26
2022-09-17T23:42:17.118Z,17.36
2022-09-17T23:44:48.626Z,17.47
2022-09-17T23:47:20.106Z,16.35
2022-09-17T23:49:50.064Z,15.19
2022-09-17T23:52:21.733Z,14.33
2022-09-17T23:54:57.728Z,14.20
2022-09-17T23:57:30.446Z,15.75
